MMTC/TRC METAR and TAF weather

Enter ICAO airport designator
Station Type Date Time Source
MMTC METAR 2020/11/27 12:41 UTC NOAA

MMTC 271241Z 00000KT 10SM BKN030 BKN080 15/01 A3007 RMK 8/570


Station Type Date Time Source
MMTC Decoded METAR 2020/11/27 12:41 UTC NOAA

Torreon, Coah., Mexico (MMTC) 25-32N 103-27W 1150M
Nov 27, 2020 - 07:41 AM EST / 2020.11.27 1241 UTC
Wind: Calm:0
Visibility: 10 mile(s):0
Sky conditions: mostly cloudy
Temperature: 59 F (15 C)
Dew Point: 33 F (1 C)
Relative Humidity: 38%
Pressure (altimeter): 30.07 in. Hg (1018 hPa)
ob: MMTC 271241Z 00000KT 10SM BKN030 BKN080 15/01 A3007 RMK 8/570
cycle: 12

Station Type Date Time Source
MMTC TAF 2020/11/27 06:13 UTC NOAA

TAF MMTC 270506Z 2706/2806 22005KT P6SM SCT080 SCT250
FM271900 22008KT P6SM SCT100 SCT250
FM280200 20005KT P6SM SCT250

Example: see airport list